Time;durP1;ratioP1;P1;durP2;ratioP2;P2;SDS_P1;SDS_P2;PMS_P1;PMS_P2;Temp;Humidity;BMP_temperature;BMP_pressure;BME280_temperature;BME280_humidity;BME280_pressure;Samples;Min_cycle;Max_cycle;Signal;HPM_P1;HPM_P2
2022/12/23 00:01:14;;;;;;;22.98;12.88;;;7.40;99.90;;;;;;6240669;23;20032;-78
2022/12/23 00:03:40;;;;;;;28.38;14.10;;;7.30;99.90;;;;;;6214442;23;20044;-77
2022/12/23 00:06:19;;;;;;;27.02;14.82;;;7.30;99.90;;;;;;6214146;23;20012;-77
2022/12/23 00:08:48;;;;;;;26.25;14.65;;;7.30;99.90;;;;;;6213857;23;20066;-76
2022/12/23 00:11:21;;;;;;;25.58;14.35;;;7.30;99.90;;;;;;6240651;23;20064;-77
2022/12/23 00:16:34;;;;;;;28.23;15.38;;;7.20;99.90;;;;;;6241548;23;20097;-78
2022/12/23 00:18:59;;;;;;;27.52;15.70;;;7.20;99.90;;;;;;6214462;23;20495;-77
2022/12/23 00:21:25;;;;;;;30.13;14.82;;;7.10;99.90;;;;;;6213743;23;20050;-77
2022/12/23 00:23:51;;;;;;;31.95;16.73;;;7.10;99.90;;;;;;6214502;23;20000;-77
2022/12/23 00:26:24;;;;;;;34.78;17.27;;;7.10;99.90;;;;;;6215480;23;20000;-77
2022/12/23 00:28:50;;;;;;;31.55;16.30;;;7.10;99.90;;;;;;6241087;23;20022;-77
2022/12/23 00:31:23;;;;;;;29.50;16.02;;;7.10;99.90;;;;;;6240390;23;20428;-77
2022/12/23 00:33:52;;;;;;;32.50;15.68;;;7.00;99.90;;;;;;6213854;23;20018;-77
2022/12/23 00:36:21;;;;;;;27.67;16.58;;;7.00;99.90;;;;;;6240894;23;20008;-77
2022/12/23 00:44:17;;;;;;;32.05;15.20;;;7.00;99.90;;;;;;6240890;23;20031;-76
2022/12/23 00:46:43;;;;;;;33.35;16.00;;;7.00;99.90;;;;;;6214020;23;20004;-77
2022/12/23 00:52:00;;;;;;;26.17;14.20;;;7.00;99.90;;;;;;6242889;23;20019;-76
2022/12/23 00:54:26;;;;;;;29.10;15.35;;;7.00;99.90;;;;;;6216540;23;20004;-77
2022/12/23 00:56:52;;;;;;;30.48;13.95;;;7.00;99.90;;;;;;6214679;23;20015;-78
2022/12/23 00:59:18;;;;;;;32.33;15.68;;;7.00;99.90;;;;;;6213108;23;20338;-76
2022/12/23 01:07:12;;;;;;;28.67;15.05;;;7.00;99.90;;;;;;6243476;23;20011;-77
2022/12/23 01:09:38;;;;;;;32.03;15.13;;;7.00;99.90;;;;;;6242665;23;20020;-77
2022/12/23 01:12:04;;;;;;;34.53;17.00;;;7.00;99.90;;;;;;6216121;23;20031;-77
2022/12/23 01:14:31;;;;;;;31.77;16.02;;;7.00;99.90;;;;;;6215686;23;20004;-77
2022/12/23 01:16:57;;;;;;;29.63;15.18;;;7.00;99.90;;;;;;6215916;23;20087;-77
2022/12/23 01:19:22;;;;;;;27.92;13.98;;;7.00;99.90;;;;;;6241812;23;20374;-77
2022/12/23 01:21:48;;;;;;;29.02;15.10;;;7.00;99.90;;;;;;6243197;23;20001;-76
2022/12/23 01:24:14;;;;;;;28.85;13.93;;;7.00;99.90;;;;;;6242627;23;20000;-76
2022/12/23 01:26:39;;;;;;;26.38;12.77;;;7.00;99.90;;;;;;6215903;23;20312;-76
2022/12/23 01:29:05;;;;;;;29.60;13.73;;;7.10;99.90;;;;;;6242155;23;19996;-76
2022/12/23 01:31:31;;;;;;;23.90;13.07;;;7.00;99.90;;;;;;6215451;23;20430;-77
2022/12/23 01:33:57;;;;;;;27.45;14.00;;;7.10;99.90;;;;;;6215507;23;20069;-77
2022/12/23 01:36:23;;;;;;;29.83;15.20;;;7.10;99.90;;;;;;6215702;23;20344;-77
2022/12/23 01:38:59;;;;;;;34.60;15.25;;;7.10;99.90;;;;;;6243006;23;20018;-77
2022/12/23 01:44:49;;;;;;;27.85;12.90;;;7.20;99.90;;;;;;6243832;23;20015;-76
2022/12/23 01:47:32;;;;;;;25.17;12.73;;;7.20;99.90;;;;;;6217744;23;20032;-76
2022/12/23 01:50:06;;;;;;;24.85;12.75;;;7.20;99.90;;;;;;6216439;23;20008;-77
2022/12/23 01:52:39;;;;;;;27.38;12.82;;;7.20;99.90;;;;;;6243727;23;20011;-76
2022/12/23 01:55:06;;;;;;;33.83;16.02;;;7.20;99.90;;;;;;6216329;23;20004;-76
2022/12/23 01:57:37;;;;;;;29.15;13.90;;;7.20;99.90;;;;;;6215244;23;20046;-76
2022/12/23 02:05:36;;;;;;;31.73;15.38;;;7.20;99.90;;;;;;6242298;23;20011;-77
2022/12/23 02:11:26;;;;;;;28.50;13.85;;;7.20;99.90;;;;;;6241667;23;20023;-77
2022/12/23 02:17:16;;;;;;;32.38;15.60;;;7.20;99.90;;;;;;6241635;23;20058;-77
2022/12/23 02:20:06;;;;;;;35.95;15.10;;;7.30;99.90;;;;;;6214412;23;20007;-77
2022/12/23 02:22:59;;;;;;;32.33;15.10;;;7.40;99.90;;;;;;6215032;23;20320;-77
2022/12/23 02:25:47;;;;;;;37.92;15.60;;;7.40;99.90;;;;;;6215217;23;20032;-78
2022/12/23 02:28:48;;;;;;;35.60;14.13;;;7.50;99.90;;;;;;6215239;23;20004;-77
2022/12/23 02:31:23;;;;;;;28.67;15.02;;;7.50;99.90;;;;;;6214163;23;20051;-77
2022/12/23 02:34:01;;;;;;;30.48;13.70;;;7.50;99.90;;;;;;6241582;23;20139;-77
2022/12/23 02:36:48;;;;;;;31.20;12.90;;;7.60;99.90;;;;;;6214700;23;20087;-77
2022/12/23 02:39:23;;;;;;;26.20;13.88;;;7.60;99.90;;;;;;6214211;23;20004;-78
2022/12/23 02:41:56;;;;;;;29.70;13.90;;;7.70;99.90;;;;;;6241454;23;20011;-78
2022/12/23 02:44:55;;;;;;;29.63;13.18;;;7.70;99.90;;;;;;6229127;23;19996;-77
2022/12/23 02:47:34;;;;;;;26.42;11.73;;;7.80;99.90;;;;;;6185096;23;20009;-78
2022/12/23 02:50:09;;;;;;;25.27;12.05;;;7.80;99.90;;;;;;6210842;23;20005;-77
2022/12/23 02:52:37;;;;;;;24.92;11.88;;;7.80;99.90;;;;;;6184928;23;20059;-77
2022/12/23 02:55:15;;;;;;;23.92;11.25;;;7.90;99.90;;;;;;6184932;23;20009;-78
2022/12/23 02:57:45;;;;;;;21.77;11.05;;;8.00;99.90;;;;;;6184922;23;20009;-77
2022/12/23 03:00:12;;;;;;;24.27;10.70;;;8.00;99.90;;;;;;6184056;23;20047;-78
2022/12/23 03:02:40;;;;;;;23.73;12.40;;;8.00;99.90;;;;;;6211390;23;20016;-78
2022/12/23 03:05:48;;;;;;;21.30;12.05;;;8.10;99.90;;;;;;6211240;23;20000;-78
2022/12/23 03:08:19;;;;;;;22.95;11.93;;;8.10;99.90;;;;;;6202936;23;20005;-78
2022/12/23 03:11:10;;;;;;;21.83;12.25;;;8.10;99.90;;;;;;6210066;23;20011;-77
2022/12/23 03:14:30;;;;;;;22.80;12.02;;;8.10;99.90;;;;;;6211100;23;20439;-78
2022/12/23 03:17:09;;;;;;;20.77;11.32;;;8.10;99.90;;;;;;6036644;23;20018;-77
2022/12/23 03:19:51;;;;;;;23.42;11.35;;;8.10;99.90;;;;;;6183842;23;20083;-78
2022/12/23 03:22:36;;;;;;;20.20;11.20;;;8.20;99.90;;;;;;6184499;23;20001;-78
2022/12/23 03:25:22;;;;;;;18.58;10.25;;;8.20;99.90;;;;;;6210320;23;20005;-78
2022/12/23 03:28:13;;;;;;;21.40;11.23;;;8.20;99.90;;;;;;6184289;23;20008;-78
2022/12/23 03:30:41;;;;;;;;;;;8.20;99.90;;;;;;6184129;23;20399;-77
2022/12/23 03:33:26;;;;;;;21.15;10.43;;;8.20;99.90;;;;;;6184512;23;20247;-78
2022/12/23 03:36:00;;;;;;;17.48;10.55;;;8.10;99.90;;;;;;6211395;23;20028;-78
2022/12/23 03:38:27;;;;;;;22.83;12.10;;;8.20;99.90;;;;;;6184332;23;20005;-77
2022/12/23 03:41:01;;;;;;;24.75;11.95;;;8.20;99.90;;;;;;6183470;23;20008;-77
2022/12/23 03:43:41;;;;;;;19.25;11.50;;;8.20;99.90;;;;;;6184553;23;20158;-77
2022/12/23 03:46:13;;;;;;;18.55;11.20;;;8.20;99.90;;;;;;6210932;23;20298;-77
2022/12/23 03:48:50;;;;;;;18.27;10.82;;;8.20;99.90;;;;;;6211115;23;20443;-78
2022/12/23 03:51:31;;;;;;;18.60;11.93;;;8.20;99.90;;;;;;6210475;23;20008;-76
2022/12/23 03:54:00;;;;;;;;;;;8.20;99.90;;;;;;6184890;23;20007;-77
2022/12/23 03:56:45;;;;;;;17.88;10.25;;;8.20;99.90;;;;;;6184259;23;20370;-76
2022/12/23 03:59:20;;;;;;;16.73;10.52;;;8.20;99.90;;;;;;6211786;23;20005;-76
2022/12/23 04:02:12;;;;;;;20.83;12.40;;;8.20;99.90;;;;;;6191286;23;20008;-76
2022/12/23 04:04:59;;;;;;;22.60;11.80;;;8.20;99.90;;;;;;6216739;23;20005;-77
2022/12/23 04:07:49;;;;;;;21.48;11.55;;;8.20;99.90;;;;;;6189855;23;20008;-78
2022/12/23 04:10:20;;;;;;;21.42;12.38;;;8.30;99.90;;;;;;6190945;23;20447;-77
2022/12/23 04:12:46;;;;;;;24.52;14.68;;;8.20;99.90;;;;;;6187419;23;20004;-77
2022/12/23 04:15:12;;;;;;;21.02;11.93;;;8.30;99.90;;;;;;6186010;23;20016;-77
2022/12/23 04:17:38;;;;;;;21.55;12.60;;;8.30;99.90;;;;;;6212224;23;20004;-77
2022/12/23 04:20:05;;;;;;;19.08;12.30;;;8.30;99.90;;;;;;6212069;23;20063;-77
2022/12/23 04:22:38;;;;;;;19.77;13.02;;;8.20;99.90;;;;;;6185387;23;20260;-77
2022/12/23 04:25:07;;;;;;;23.33;13.73;;;8.20;99.90;;;;;;6185943;23;20008;-77
2022/12/23 04:27:32;;;;;;;21.45;12.63;;;8.20;99.90;;;;;;6184098;23;20008;-77
2022/12/23 04:30:01;;;;;;;23.60;13.77;;;8.20;99.90;;;;;;6183646;23;20008;-77
2022/12/23 04:32:27;;;;;;;27.02;13.95;;;8.20;99.90;;;;;;6184399;23;20062;-77
2022/12/23 04:34:53;;;;;;;28.17;15.05;;;8.20;99.90;;;;;;6184080;23;20273;-76
2022/12/23 04:37:20;;;;;;;28.60;15.50;;;8.20;99.90;;;;;;6183777;23;20000;-78
2022/12/23 04:39:46;;;;;;;30.15;15.35;;;8.10;99.90;;;;;;6210575;23;20424;-78
2022/12/23 04:42:11;;;;;;;26.00;14.60;;;8.10;99.90;;;;;;6212253;23;20023;-78
2022/12/23 04:44:37;;;;;;;28.20;15.52;;;8.10;99.90;;;;;;6212357;23;19997;-78
2022/12/23 04:47:03;;;;;;;31.27;16.50;;;8.10;99.90;;;;;;6212636;23;20000;-78
2022/12/23 04:49:29;;;;;;;31.20;16.48;;;8.10;99.90;;;;;;6185764;23;20454;-78
2022/12/23 04:51:55;;;;;;;34.83;16.98;;;8.10;99.90;;;;;;6185993;23;20001;-78
2022/12/23 04:54:21;;;;;;;28.38;14.80;;;8.10;99.90;;;;;;6212332;23;20001;-78
2022/12/23 04:56:49;;;;;;;28.35;15.38;;;8.10;99.90;;;;;;6185398;23;20027;-78
2022/12/23 04:59:18;;;;;;;36.90;16.42;;;8.10;99.90;;;;;;6212221;23;20012;-78
2022/12/23 05:01:46;;;;;;;31.63;15.32;;;8.00;99.90;;;;;;6185094;23;20339;-78
2022/12/23 05:04:12;;;;;;;32.60;15.95;;;8.10;99.90;;;;;;6212408;23;20023;-77
2022/12/23 05:06:38;;;;;;;37.63;17.50;;;8.10;99.90;;;;;;6185741;23;20432;-76
2022/12/23 05:09:04;;;;;;;29.25;14.23;;;8.10;99.90;;;;;;6212595;23;20035;-76
2022/12/23 05:11:30;;;;;;;34.17;15.20;;;8.10;99.90;;;;;;6212150;23;20012;-75
2022/12/23 05:13:56;;;;;;;31.50;15.38;;;8.10;99.90;;;;;;6185685;23;20450;-76
2022/12/23 05:16:30;;;;;;;30.02;14.93;;;8.10;99.90;;;;;;6185468;23;20008;-76
2022/12/23 05:18:56;;;;;;;31.75;15.35;;;8.10;99.90;;;;;;6211814;23;20004;-77
2022/12/23 05:21:22;;;;;;;34.60;16.90;;;8.10;99.90;;;;;;6184706;23;20004;-76
2022/12/23 05:23:48;;;;;;;37.22;16.80;;;8.10;99.90;;;;;;6185709;23;20187;-76
2022/12/23 05:26:14;;;;;;;37.03;17.40;;;8.10;99.90;;;;;;6185761;23;20004;-76
2022/12/23 05:28:44;;;;;;;35.20;16.88;;;8.10;99.90;;;;;;6212186;23;20084;-75
2022/12/23 05:31:11;;;;;;;39.35;17.17;;;8.10;99.90;;;;;;6212000;23;20127;-75
2022/12/23 05:33:38;;;;;;;36.80;17.00;;;8.10;99.90;;;;;;6189509;23;20005;-76
2022/12/23 05:36:04;;;;;;;34.42;17.10;;;8.10;99.90;;;;;;6185680;23;20098;-76
2022/12/23 05:38:30;;;;;;;36.95;17.27;;;8.10;99.90;;;;;;6185252;23;20051;-74
2022/12/23 05:40:56;;;;;;;40.22;17.25;;;8.10;99.90;;;;;;6211021;23;20175;-74
2022/12/23 05:43:23;;;;;;;36.45;17.10;;;8.10;99.90;;;;;;6180596;23;20507;-74
2022/12/23 05:45:49;;;;;;;37.58;17.52;;;8.10;99.90;;;;;;6183307;23;19997;-75
2022/12/23 05:48:16;;;;;;;31.48;15.68;;;8.10;99.90;;;;;;6185108;23;20008;-75
2022/12/23 05:50:41;;;;;;;34.00;16.02;;;8.10;99.90;;;;;;6184769;23;20001;-76
2022/12/23 05:53:07;;;;;;;47.20;18.73;;;8.10;99.90;;;;;;6185337;23;20166;-77
2022/12/23 05:55:34;;;;;;;35.40;17.13;;;8.00;99.90;;;;;;6211825;23;20012;-77
2022/12/23 05:58:00;;;;;;;34.80;16.58;;;8.10;99.90;;;;;;6211613;23;20071;-76
2022/12/23 06:00:29;;;;;;;34.95;17.52;;;8.00;99.90;;;;;;6185055;23;20087;-77
2022/12/23 06:02:54;;;;;;;29.80;15.15;;;8.00;99.90;;;;;;6184561;23;20000;-76
2022/12/23 06:05:20;;;;;;;31.38;15.27;;;8.00;99.90;;;;;;6211556;23;20055;-76
2022/12/23 06:07:46;;;;;;;27.25;14.60;;;8.00;99.90;;;;;;6185318;23;20415;-76
2022/12/23 06:10:11;;;;;;;33.80;15.73;;;8.00;99.90;;;;;;6210622;23;20012;-76
2022/12/23 06:12:37;;;;;;;30.27;14.45;;;8.00;99.90;;;;;;6184501;23;20013;-77
2022/12/23 06:15:04;;;;;;;28.52;13.93;;;7.90;99.90;;;;;;6211203;23;20383;-76
2022/12/23 06:17:30;;;;;;;30.60;13.77;;;7.90;99.90;;;;;;6209641;23;20004;-77
2022/12/23 06:19:55;;;;;;;30.42;13.65;;;7.90;99.90;;;;;;6210922;23;20035;-77
2022/12/23 06:22:22;;;;;;;31.17;13.25;;;7.90;99.90;;;;;;6211396;23;20287;-75
2022/12/23 06:24:48;;;;;;;28.05;14.00;;;7.80;99.90;;;;;;6211472;23;20005;-76
2022/12/23 06:27:14;;;;;;;29.38;13.35;;;7.80;99.90;;;;;;6210958;23;20012;-77
2022/12/23 06:29:40;;;;;;;30.30;15.38;;;7.80;99.90;;;;;;6210865;23;20420;-77
2022/12/23 06:32:05;;;;;;;33.40;14.40;;;7.80;99.90;;;;;;6184431;23;20443;-76
2022/12/23 06:34:31;;;;;;;27.25;13.48;;;7.80;99.90;;;;;;6211501;23;20000;-76
2022/12/23 06:36:56;;;;;;;27.10;12.93;;;7.80;99.90;;;;;;6184379;23;20454;-76
2022/12/23 06:39:22;;;;;;;26.17;12.70;;;7.80;99.90;;;;;;6184006;23;20783;-76
2022/12/23 06:41:48;;;;;;;26.50;12.23;;;7.80;99.90;;;;;;6209051;23;20523;-76
2022/12/23 06:44:14;;;;;;;30.52;12.05;;;7.70;99.90;;;;;;6184352;23;20049;-78
2022/12/23 06:46:40;;;;;;;27.27;11.63;;;7.70;99.90;;;;;;6210377;23;20015;-77
2022/12/23 06:49:06;;;;;;;31.90;12.52;;;7.70;99.90;;;;;;6210618;23;20467;-77
2022/12/23 06:51:31;;;;;;;31.98;12.55;;;7.70;99.90;;;;;;6184218;23;20427;-76
2022/12/23 06:53:58;;;;;;;31.92;13.13;;;7.60;99.90;;;;;;6184435;23;20431;-76
2022/12/23 06:56:24;;;;;;;29.23;12.10;;;7.60;99.90;;;;;;6187429;23;20316;-77
2022/12/23 06:58:51;;;;;;;29.77;11.77;;;7.60;99.90;;;;;;6186171;23;20005;-77
2022/12/23 07:01:17;;;;;;;29.83;12.57;;;7.50;99.90;;;;;;6185513;23;20011;-77
2022/12/23 07:03:43;;;;;;;29.70;12.13;;;7.60;99.90;;;;;;6212328;23;20341;-77
2022/12/23 07:06:08;;;;;;;30.92;11.95;;;7.50;99.90;;;;;;6185740;23;20015;-77
2022/12/23 07:08:34;;;;;;;28.73;12.35;;;7.50;99.90;;;;;;6213024;23;20059;-77
2022/12/23 07:11:02;;;;;;;35.70;14.35;;;7.50;99.90;;;;;;6185131;23;20047;-77
2022/12/23 07:13:28;;;;;;;30.75;13.00;;;7.40;99.90;;;;;;6186376;23;20004;-78
2022/12/23 07:15:57;;;;;;;33.85;13.15;;;7.50;99.90;;;;;;6211267;23;20139;-78
2022/12/23 07:18:23;;;;;;;25.17;12.38;;;7.40;99.90;;;;;;6223141;23;20005;-84
2022/12/23 07:20:50;;;;;;;30.42;12.65;;;7.50;99.90;;;;;;6199315;23;20018;-85
2022/12/23 07:23:16;;;;;;;26.15;11.25;;;7.50;99.90;;;;;;6200168;23;20313;-85
2022/12/23 07:25:42;;;;;;;29.60;12.57;;;7.40;99.90;;;;;;6200888;23;20008;-84
2022/12/23 07:28:08;;;;;;;27.63;11.93;;;7.40;99.90;;;;;;6198697;23;19997;-84
2022/12/23 07:30:34;;;;;;;24.75;11.65;;;7.40;99.90;;;;;;6213334;23;20080;-79
2022/12/23 07:32:59;;;;;;;24.35;11.32;;;7.40;99.90;;;;;;6212457;23;20000;-78
2022/12/23 07:35:25;;;;;;;22.15;10.73;;;7.40;99.90;;;;;;6212059;23;20031;-79
2022/12/23 07:37:52;;;;;;;22.60;10.77;;;7.30;99.90;;;;;;6184722;23;20083;-78
2022/12/23 07:40:18;;;;;;;20.65;11.15;;;7.40;99.90;;;;;;6184012;23;20001;-79
2022/12/23 07:42:46;;;;;;;21.20;10.10;;;7.30;99.90;;;;;;6211745;23;20003;-78
2022/12/23 07:45:12;;;;;;;20.95;11.40;;;7.40;99.90;;;;;;6185901;23;20383;-79
2022/12/23 07:47:37;;;;;;;22.08;11.23;;;7.30;99.90;;;;;;6212524;23;20026;-79
2022/12/23 07:50:04;;;;;;;21.95;11.30;;;7.30;99.90;;;;;;6185922;23;20458;-78
2022/12/23 07:52:29;;;;;;;25.25;12.07;;;7.30;99.90;;;;;;6186223;23;20015;-77
2022/12/23 07:54:55;;;;;;;19.17;10.85;;;7.40;99.90;;;;;;6185517;23;20039;-79
2022/12/23 07:57:21;;;;;;;22.73;11.80;;;7.30;99.90;;;;;;6212870;23;20008;-80
2022/12/23 07:59:46;;;;;;;23.10;11.98;;;7.40;99.90;;;;;;6211887;23;20004;-79
2022/12/23 08:02:12;;;;;;;22.73;11.20;;;7.40;99.90;;;;;;6185754;23;19997;-79
2022/12/23 08:04:38;;;;;;;28.77;12.70;;;7.40;99.90;;;;;;6212883;23;20083;-79
2022/12/23 08:07:03;;;;;;;25.73;12.43;;;7.40;99.90;;;;;;6185034;23;20063;-80
2022/12/23 08:09:29;;;;;;;19.58;10.90;;;7.40;99.90;;;;;;6211302;23;20099;-80
2022/12/23 08:11:54;;;;;;;30.35;13.68;;;7.40;99.90;;;;;;6185630;23;20003;-80
2022/12/23 08:14:20;;;;;;;27.38;12.70;;;7.40;99.90;;;;;;6210873;23;20000;-82
2022/12/23 08:16:47;;;;;;;27.92;12.02;;;7.40;99.90;;;;;;6220136;23;20007;-83
2022/12/23 08:19:12;;;;;;;27.98;13.68;;;7.50;99.90;;;;;;6228597;23;20063;-82
2022/12/23 08:21:38;;;;;;;26.20;12.77;;;7.40;99.90;;;;;;6213893;23;20009;-82
2022/12/23 08:24:04;;;;;;;29.38;14.63;;;7.50;99.90;;;;;;6187322;23;20079;-82
2022/12/23 08:26:31;;;;;;;27.35;13.63;;;7.50;99.90;;;;;;6187598;23;20125;-82
2022/12/23 08:28:56;;;;;;;22.08;11.50;;;7.50;99.90;;;;;;6185184;23;20431;-79
2022/12/23 08:31:24;;;;;;;27.02;13.40;;;7.50;99.90;;;;;;6184101;23;20005;-79
2022/12/23 08:33:53;;;;;;;22.27;12.70;;;7.50;99.90;;;;;;6184209;23;20092;-79
2022/12/23 08:36:28;;;;;;;25.83;13.05;;;7.50;99.90;;;;;;6184224;23;20032;-79
2022/12/23 08:38:56;;;;;;;27.73;13.25;;;7.50;99.90;;;;;;6183721;23;20004;-79
2022/12/23 08:41:25;;;;;;;27.58;12.40;;;7.50;99.90;;;;;;6187577;23;20001;-79
2022/12/23 08:43:51;;;;;;;29.33;13.13;;;7.50;99.90;;;;;;6215316;23;20004;-80
2022/12/23 08:46:17;;;;;;;24.85;13.43;;;7.50;99.90;;;;;;6187778;23;20352;-80
2022/12/23 08:48:43;;;;;;;26.00;13.23;;;7.50;99.90;;;;;;6214036;23;19997;-78
2022/12/23 08:51:12;;;;;;;28.35;14.32;;;7.50;99.90;;;;;;6186698;23;20455;-79
2022/12/23 08:53:40;;;;;;;28.42;15.20;;;7.50;99.90;;;;;;6185675;23;20058;-79
2022/12/23 08:56:12;;;;;;;25.40;13.90;;;7.50;99.90;;;;;;6190027;23;20491;-78
2022/12/23 08:58:39;;;;;;;32.58;15.52;;;7.50;99.90;;;;;;6209992;23;20000;-79
2022/12/23 09:01:08;;;;;;;28.85;14.48;;;7.50;99.90;;;;;;6212834;23;20406;-80
2022/12/23 09:03:34;;;;;;;25.13;14.18;;;7.50;99.90;;;;;;6185699;23;20345;-80
2022/12/23 09:06:27;;;;;;;33.20;16.05;;;7.60;99.90;;;;;;6210090;23;20079;-79
2022/12/23 09:08:54;;;;;;;28.08;14.98;;;7.60;99.90;;;;;;6205864;23;20645;-79
2022/12/23 09:11:25;;;;;;;28.50;14.88;;;7.60;99.90;;;;;;6185476;23;20012;-79
2022/12/23 09:13:51;;;;;;;31.98;16.83;;;7.70;99.90;;;;;;6185500;23;20005;-79
2022/12/23 09:16:17;;;;;;;33.72;16.13;;;7.70;99.90;;;;;;6183376;23;20004;-80
2022/12/23 09:18:43;;;;;;;32.25;16.48;;;7.70;99.90;;;;;;6183282;23;20004;-80
2022/12/23 09:21:18;;;;;;;34.33;17.33;;;7.70;99.90;;;;;;6208681;23;20343;-80
2022/12/23 09:23:43;;;;;;;32.85;16.88;;;7.80;99.90;;;;;;6183071;23;20004;-80
2022/12/23 09:26:10;;;;;;;34.38;17.63;;;7.70;99.90;;;;;;6183543;23;20008;-80
2022/12/23 09:28:38;;;;;;;31.27;16.85;;;7.70;99.90;;;;;;6211855;23;19996;-79
2022/12/23 09:31:11;;;;;;;36.70;17.45;;;7.70;99.90;;;;;;6184275;23;20054;-80
2022/12/23 09:33:37;;;;;;;37.92;16.40;;;7.70;99.90;;;;;;6211247;23;20000;-80
2022/12/23 09:36:04;;;;;;;44.55;18.63;;;7.70;99.90;;;;;;6184300;23;20395;-80
2022/12/23 09:38:29;;;;;;;40.90;18.50;;;7.70;99.90;;;;;;6184706;23;20023;-80
2022/12/23 09:41:27;;;;;;;37.38;16.73;;;7.70;99.90;;;;;;6210826;23;20005;-80
2022/12/23 09:44:11;;;;;;;37.30;18.23;;;7.60;99.90;;;;;;6160319;23;20300;-79
2022/12/23 09:46:50;;;;;;;36.53;16.95;;;7.60;99.90;;;;;;6184930;23;20004;-79
2022/12/23 09:49:17;;;;;;;34.05;16.45;;;7.60;99.90;;;;;;6210817;23;20004;-80
2022/12/23 09:51:44;;;;;;;33.75;17.52;;;7.60;99.90;;;;;;6210585;23;20007;-79
2022/12/23 09:54:21;;;;;;;39.22;18.58;;;7.60;99.90;;;;;;6210023;23;20012;-79
2022/12/23 09:56:59;;;;;;;36.28;17.60;;;7.70;99.90;;;;;;6210510;23;20092;-80
2022/12/23 09:59:28;;;;;;;38.85;19.58;;;7.60;99.90;;;;;;6209481;23;20333;-79
2022/12/23 10:02:05;;;;;;;35.65;18.08;;;7.60;99.90;;;;;;6211254;23;20469;-80
2022/12/23 10:04:34;;;;;;;38.22;18.13;;;7.70;99.90;;;;;;6184023;23;20091;-80
2022/12/23 10:07:02;;;;;;;40.92;19.42;;;7.70;99.90;;;;;;6210156;23;20008;-80
2022/12/23 10:09:30;;;;;;;41.00;19.95;;;7.70;99.90;;;;;;6183851;23;20517;-80
2022/12/23 10:11:56;;;;;;;38.17;18.35;;;7.70;99.90;;;;;;6211439;23;20001;-80
2022/12/23 10:14:30;;;;;;;40.58;19.80;;;7.80;99.90;;;;;;6210709;23;20005;-80
2022/12/23 10:17:15;;;;;;;38.92;18.90;;;7.80;99.90;;;;;;6211333;23;20000;-80
2022/12/23 10:19:47;;;;;;;48.28;21.40;;;7.80;99.90;;;;;;6183765;23;20546;-80
2022/12/23 10:22:23;;;;;;;47.47;23.00;;;7.80;99.90;;;;;;6210898;23;20076;-80
2022/12/23 10:24:50;;;;;;;45.45;20.42;;;7.80;99.90;;;;;;6210921;23;20016;-80
2022/12/23 10:27:37;;;;;;;54.30;23.95;;;7.80;99.90;;;;;;6210707;23;20001;-80
2022/12/23 10:30:10;;;;;;;46.40;21.00;;;7.80;99.90;;;;;;6210597;23;20005;-79
2022/12/23 10:32:59;;;;;;;52.08;23.83;;;7.70;99.90;;;;;;6184284;23;20047;-80
2022/12/23 10:35:46;;;;;;;47.50;21.58;;;7.70;99.90;;;;;;6183959;23;20087;-80
2022/12/23 10:38:43;;;;;;;48.70;21.52;;;7.70;99.90;;;;;;6183542;23;20009;-80
2022/12/23 10:41:47;;;;;;;54.95;24.60;;;7.70;99.90;;;;;;6210193;23;20143;-77
2022/12/23 10:44:27;;;;;;;58.33;25.33;;;7.80;99.90;;;;;;6183417;23;20009;-78
2022/12/23 10:47:02;;;;;;;52.00;22.50;;;7.80;99.90;;;;;;6184610;23;20004;-78
2022/12/23 10:49:45;;;;;;;54.25;23.58;;;7.80;99.90;;;;;;6210212;23;20083;-76
2022/12/23 10:52:17;;;;;;;56.92;23.85;;;7.90;99.90;;;;;;6183957;23;20034;-76
2022/12/23 10:54:45;;;;;;;45.88;23.30;;;7.90;99.90;;;;;;6210526;23;20327;-78
2022/12/23 10:57:12;;;;;;;50.63;23.20;;;8.00;99.90;;;;;;6183774;23;20027;-78
2022/12/23 10:59:37;;;;;;;58.15;25.92;;;8.10;99.90;;;;;;6209408;23;20443;-78
2022/12/23 11:02:12;;;;;;;49.45;23.75;;;8.10;99.90;;;;;;6210489;23;20028;-78
2022/12/23 11:04:50;;;;;;;54.90;23.80;;;8.20;99.90;;;;;;6183979;23;20051;-78
2022/12/23 11:07:26;;;;;;;52.92;24.25;;;8.20;99.90;;;;;;6209357;23;20000;-78
2022/12/23 11:09:58;;;;;;;50.53;24.05;;;8.30;99.90;;;;;;6209630;23;20015;-78
2022/12/23 11:12:36;;;;;;;50.95;23.25;;;8.30;99.90;;;;;;6211004;23;20001;-77
2022/12/23 11:15:03;;;;;;;48.92;23.38;;;8.40;99.90;;;;;;6210991;23;20000;-78
2022/12/23 11:17:33;;;;;;;49.38;23.90;;;8.40;99.90;;;;;;6211466;23;20020;-76
2022/12/23 11:20:09;;;;;;;43.70;22.55;;;8.40;99.90;;;;;;6183803;23;20005;-76
2022/12/23 11:22:47;;;;;;;44.67;21.45;;;8.50;99.90;;;;;;6184202;23;20001;-76
2022/12/23 11:25:34;;;;;;;44.08;21.38;;;8.50;99.90;;;;;;6184374;23;20028;-78
2022/12/23 11:28:09;;;;;;;40.38;20.02;;;8.50;99.90;;;;;;6184129;23;20005;-78
2022/12/23 11:30:39;;;;;;;44.35;22.10;;;8.50;99.90;;;;;;6209910;23;20012;-78
2022/12/23 11:33:05;;;;;;;38.78;20.23;;;8.60;99.90;;;;;;6184466;23;20040;-78
2022/12/23 11:35:35;;;;;;;42.38;19.63;;;8.60;99.90;;;;;;6210800;23;20076;-79
2022/12/23 11:38:02;;;;;;;36.47;18.83;;;8.60;99.90;;;;;;6211068;23;20020;-78
2022/12/23 11:40:38;;;;;;;39.28;19.48;;;8.60;99.90;;;;;;6210456;23;20055;-78
2022/12/23 11:43:11;;;;;;;38.80;19.60;;;8.70;99.90;;;;;;6185883;23;20055;-77
2022/12/23 11:45:37;;;;;;;36.33;19.33;;;8.70;99.90;;;;;;6184608;23;20083;-78
2022/12/23 11:48:28;;;;;;;33.78;18.38;;;8.70;99.90;;;;;;6185280;23;20028;-79
2022/12/23 11:51:09;;;;;;;37.70;19.30;;;8.70;99.90;;;;;;6212784;23;20063;-78
2022/12/23 11:53:35;;;;;;;34.22;18.50;;;8.60;99.90;;;;;;6185045;23;20035;-78
2022/12/23 11:56:13;;;;;;;40.08;19.48;;;8.60;99.90;;;;;;6182787;23;20012;-78
2022/12/23 11:58:57;;;;;;;34.80;17.83;;;8.40;99.90;;;;;;6179832;23;20348;-79
2022/12/23 12:01:24;;;;;;;31.35;17.33;;;8.30;99.90;;;;;;6209617;23;20008;-79
2022/12/23 12:04:17;;;;;;;32.28;17.25;;;8.40;99.90;;;;;;6210092;23;20006;-78
2022/12/23 12:06:44;;;;;;;32.63;17.67;;;8.40;99.90;;;;;;6210405;23;20450;-78
2022/12/23 12:09:12;;;;;;;29.98;16.77;;;8.40;99.90;;;;;;6182989;23;20317;-80
2022/12/23 12:11:44;;;;;;;33.90;18.90;;;8.40;99.90;;;;;;6210272;23;20304;-80
2022/12/23 12:14:26;;;;;;;36.40;20.00;;;8.40;99.90;;;;;;6183889;23;20012;-79
2022/12/23 12:17:04;;;;;;;31.85;16.88;;;8.30;99.90;;;;;;6210607;23;20320;-78
2022/12/23 12:19:39;;;;;;;31.15;17.73;;;8.40;99.90;;;;;;6183431;23;20009;-78
2022/12/23 12:22:13;;;;;;;31.27;17.52;;;8.40;99.90;;;;;;6183831;23;20009;-80
2022/12/23 12:24:52;;;;;;;35.83;17.67;;;8.40;99.90;;;;;;6210817;23;20005;-80
2022/12/23 12:27:23;;;;;;;32.83;17.02;;;8.40;99.90;;;;;;6184126;23;20004;-78
2022/12/23 12:29:54;;;;;;;33.50;17.42;;;8.40;99.90;;;;;;6209943;23;20078;-81
2022/12/23 12:32:53;;;;;;;30.98;17.42;;;8.40;99.90;;;;;;6183552;23;20004;-80
2022/12/23 12:35:29;;;;;;;29.73;16.40;;;8.50;99.90;;;;;;6210050;23;20001;-78
2022/12/23 12:38:21;;;;;;;27.70;15.73;;;8.50;99.90;;;;;;6182934;23;20009;-78
2022/12/23 12:40:51;;;;;;;30.55;15.65;;;8.50;99.90;;;;;;6208152;23;20000;-78
2022/12/23 12:43:22;;;;;;;25.50;14.73;;;8.50;99.90;;;;;;6181680;23;20009;-78
2022/12/23 12:46:07;;;;;;;29.92;15.85;;;8.50;99.90;;;;;;6208292;23;20001;-78
2022/12/23 12:48:50;;;;;;;25.00;13.98;;;8.40;99.90;;;;;;6184236;23;20004;-80
2022/12/23 12:51:23;;;;;;;25.90;14.30;;;8.40;99.90;;;;;;6187915;23;20009;-80
2022/12/23 12:54:23;;;;;;;30.23;16.85;;;8.40;99.90;;;;;;6211993;23;20432;-80
2022/12/23 12:56:56;;;;;;;26.80;15.07;;;8.50;99.90;;;;;;6153703;23;20005;-79
2022/12/23 12:59:34;;;;;;;25.27;14.63;;;8.40;99.90;;;;;;6184650;23;20394;-80
2022/12/23 13:02:37;;;;;;;28.23;14.38;;;8.50;99.90;;;;;;6215344;23;20012;-79
2022/12/23 13:05:39;;;;;;;23.15;14.25;;;8.50;99.90;;;;;;6189390;23;20000;-79
2022/12/23 13:08:07;;;;;;;24.15;14.05;;;8.50;99.90;;;;;;6216325;23;20467;-79
2022/12/23 13:10:47;;;;;;;23.88;13.80;;;8.50;99.90;;;;;;6215319;23;20008;-79
2022/12/23 13:13:39;;;;;;;29.52;16.00;;;8.50;99.90;;;;;;6189327;23;20008;-79
2022/12/23 13:16:31;;;;;;;26.77;14.55;;;8.50;99.90;;;;;;6216296;23;20028;-79
2022/12/23 13:19:46;;;;;;;22.10;14.27;;;8.50;99.90;;;;;;6216395;23;20001;-80
2022/12/23 13:22:18;;;;;;;24.63;13.98;;;8.60;99.90;;;;;;6189961;23;20091;-79
2022/12/23 13:25:07;;;;;;;24.45;13.73;;;8.60;99.90;;;;;;6216604;23;20003;-79
2022/12/23 13:28:28;;;;;;;26.35;14.65;;;8.60;99.90;;;;;;6216479;23;20024;-79
2022/12/23 13:31:36;;;;;;;27.52;15.20;;;8.60;99.90;;;;;;6215382;23;20028;-80
2022/12/23 13:34:33;;;;;;;26.00;14.68;;;8.60;99.90;;;;;;6067788;23;20037;-80
2022/12/23 13:37:17;;;;;;;27.15;15.57;;;8.60;99.90;;;;;;6188760;23;20347;-79